createdAt,value
2018-06-04T00:00:02.804Z,19.00
2018-06-04T00:02:31.584Z,18.90
2018-06-04T00:05:00.362Z,18.90
2018-06-04T00:09:57.982Z,19.00
2018-06-04T00:12:26.795Z,18.90
2018-06-04T00:17:52.755Z,18.90
2018-06-04T00:20:21.536Z,18.90
2018-06-04T00:22:50.363Z,18.90
2018-06-04T00:27:47.626Z,18.80
2018-06-04T00:35:13.490Z,18.80
2018-06-04T00:37:42.271Z,18.80
2018-06-04T00:40:11.029Z,18.80
2018-06-04T00:42:39.920Z,18.80
2018-06-04T00:45:08.706Z,18.70
2018-06-04T00:47:37.706Z,18.80
2018-06-04T00:50:06.493Z,18.80
2018-06-04T00:52:35.282Z,18.80
2018-06-04T00:55:04.054Z,18.80
2018-06-04T00:57:32.869Z,18.80
2018-06-04T01:00:01.706Z,18.80
2018-06-04T01:02:30.494Z,18.70
2018-06-04T01:04:59.262Z,18.50
2018-06-04T01:07:28.041Z,18.50
2018-06-04T01:09:56.834Z,18.40
2018-06-04T01:12:25.698Z,18.40
2018-06-04T01:14:54.489Z,18.40
2018-06-04T01:17:23.277Z,18.30
2018-06-04T01:19:52.066Z,18.30
2018-06-04T01:22:20.866Z,18.40
2018-06-04T01:27:18.130Z,18.30
2018-06-04T01:32:15.513Z,18.30
2018-06-04T01:34:44.290Z,18.30
2018-06-04T01:37:13.086Z,18.30
2018-06-04T01:39:41.874Z,18.30
2018-06-04T01:44:39.130Z,18.50
2018-06-04T01:47:07.921Z,18.40
2018-06-04T01:49:36.681Z,18.30
2018-06-04T01:52:05.694Z,18.30
2018-06-04T01:54:34.466Z,18.20
2018-06-04T01:57:03.258Z,18.00
2018-06-04T01:59:32.046Z,17.80
2018-06-04T02:02:01.085Z,18.00
2018-06-04T02:04:29.866Z,18.00
2018-06-04T02:06:58.637Z,17.90
2018-06-04T02:09:27.442Z,17.70
2018-06-04T02:11:56.218Z,17.80
2018-06-04T02:14:25.122Z,17.70
2018-06-04T02:19:22.474Z,17.70
2018-06-04T02:21:51.270Z,17.80
2018-06-04T02:24:20.066Z,17.60
2018-06-04T02:29:17.393Z,17.60
2018-06-04T02:31:46.186Z,17.60
2018-06-04T02:34:15.018Z,17.40
2018-06-04T02:39:12.327Z,17.50
2018-06-04T02:41:41.098Z,17.40
2018-06-04T02:44:09.968Z,17.40
2018-06-04T02:49:07.357Z,17.40
2018-06-04T02:51:36.137Z,17.40
2018-06-04T02:54:04.926Z,17.50
2018-06-04T02:56:33.708Z,17.50
2018-06-04T02:59:02.502Z,17.50
2018-06-04T03:01:31.274Z,17.60
2018-06-04T03:06:28.579Z,17.40
2018-06-04T03:08:57.346Z,17.50
2018-06-04T03:11:26.122Z,17.40
2018-06-04T03:16:23.443Z,17.10
2018-06-04T03:18:52.234Z,17.20
2018-06-04T03:21:21.042Z,17.40
2018-06-04T03:23:49.849Z,17.40
2018-06-04T03:26:18.718Z,17.40
2018-06-04T03:28:47.522Z,17.40
2018-06-04T03:31:16.319Z,17.40
2018-06-04T03:33:45.218Z,17.50
2018-06-04T03:36:13.979Z,17.50
2018-06-04T03:38:43.109Z,17.50
2018-06-04T03:43:40.370Z,17.50
2018-06-04T03:48:37.621Z,17.30
2018-06-04T03:51:06.394Z,17.30
2018-06-04T03:53:35.187Z,17.40
2018-06-04T03:56:03.978Z,17.40
2018-06-04T03:58:32.758Z,17.40
2018-06-04T04:01:01.551Z,17.50
2018-06-04T04:03:30.338Z,17.40
2018-06-04T04:05:59.125Z,17.40
2018-06-04T04:08:27.926Z,17.40
2018-06-04T04:10:56.747Z,17.50
2018-06-04T04:15:54.009Z,17.50
2018-06-04T04:20:51.333Z,17.50
2018-06-04T04:23:20.341Z,17.50
2018-06-04T04:25:49.150Z,17.50
2018-06-04T04:28:17.971Z,17.50
2018-06-04T04:33:15.362Z,17.50
2018-06-04T04:35:44.215Z,17.50
2018-06-04T04:40:41.523Z,17.60
2018-06-04T04:43:10.421Z,17.40
2018-06-04T04:45:39.230Z,17.40
2018-06-04T04:48:08.017Z,17.50
2018-06-04T04:50:36.806Z,17.50
2018-06-04T04:53:05.640Z,17.60
2018-06-04T04:55:34.526Z,17.50
2018-06-04T04:58:03.398Z,17.50
2018-06-04T05:00:32.300Z,17.50
2018-06-04T05:03:01.074Z,17.40
2018-06-04T05:05:29.878Z,17.50
2018-06-04T05:10:27.222Z,17.60
2018-06-04T05:12:56.010Z,17.50
2018-06-04T05:15:24.834Z,17.50
2018-06-04T05:20:22.167Z,17.60
2018-06-04T05:22:50.958Z,17.60
2018-06-04T05:25:19.762Z,17.60
2018-06-04T05:27:48.531Z,17.70
2018-06-04T05:30:17.352Z,17.80
2018-06-04T05:35:14.609Z,18.00
2018-06-04T05:37:43.366Z,17.90
2018-06-04T05:40:12.134Z,17.90
2018-06-04T05:42:40.898Z,17.90
2018-06-04T05:45:09.745Z,18.00
2018-06-04T05:47:38.518Z,18.00
2018-06-04T05:50:07.339Z,18.00
2018-06-04T05:52:36.110Z,18.00
2018-06-04T05:55:05.110Z,18.00
2018-06-04T05:57:34.074Z,17.90
2018-06-04T06:00:03.135Z,18.00
2018-06-04T06:02:31.918Z,18.00
2018-06-04T06:07:29.230Z,18.00
2018-06-04T06:09:58.057Z,18.00
2018-06-04T06:12:26.829Z,17.90
2018-06-04T06:14:55.634Z,17.90
2018-06-04T06:17:24.453Z,17.80
2018-06-04T06:19:53.292Z,17.80
2018-06-04T06:22:22.061Z,17.90
2018-06-04T06:24:50.985Z,18.00
2018-06-04T06:27:19.780Z,18.10
2018-06-04T06:29:48.558Z,18.00
2018-06-04T06:32:17.393Z,18.00
2018-06-04T06:34:46.193Z,17.80
2018-06-04T06:37:14.959Z,17.80
2018-06-04T06:42:12.258Z,17.80
2018-06-04T06:44:41.026Z,17.80
2018-06-04T06:47:09.801Z,17.80
2018-06-04T06:52:07.073Z,17.70
2018-06-04T06:57:04.618Z,17.80
2018-06-04T06:59:33.418Z,17.80
2018-06-04T07:02:02.248Z,17.80
2018-06-04T07:04:30.981Z,17.70
2018-06-04T07:06:59.779Z,17.70
2018-06-04T07:09:28.586Z,17.60
2018-06-04T07:11:57.382Z,17.70
2018-06-04T07:16:54.666Z,17.80
2018-06-04T07:19:23.461Z,17.60
2018-06-04T07:21:52.286Z,17.60
2018-06-04T07:24:21.078Z,17.80
2018-06-04T07:26:49.929Z,17.90
2018-06-04T07:29:18.692Z,17.80
2018-06-04T07:34:16.081Z,17.60
2018-06-04T07:36:44.895Z,17.60
2018-06-04T07:39:13.750Z,17.80
2018-06-04T07:44:11.406Z,17.80
2018-06-04T07:46:40.252Z,17.80
2018-06-04T07:49:09.021Z,17.70
2018-06-04T07:51:37.843Z,17.80
2018-06-04T07:54:06.810Z,17.70
2018-06-04T07:56:35.653Z,17.80
2018-06-04T07:59:04.646Z,17.80
2018-06-04T08:01:33.465Z,17.90
2018-06-04T08:06:30.812Z,18.00
2018-06-04T08:08:59.590Z,18.00
2018-06-04T08:11:28.367Z,18.00
2018-06-04T08:13:57.179Z,17.90
2018-06-04T08:16:25.977Z,18.00
2018-06-04T08:18:54.741Z,18.10
2018-06-04T08:21:23.575Z,18.10
2018-06-04T08:26:20.854Z,18.10
2018-06-04T08:28:49.637Z,18.10
2018-06-04T08:31:18.439Z,18.10
2018-06-04T08:33:47.194Z,18.10
2018-06-04T08:36:15.962Z,18.10
2018-06-04T08:38:44.902Z,18.20
2018-06-04T08:41:13.687Z,18.10
2018-06-04T08:43:42.685Z,18.10
2018-06-04T08:46:11.478Z,18.10
2018-06-04T08:48:40.246Z,18.20
2018-06-04T08:53:37.787Z,18.30
2018-06-04T08:56:06.573Z,18.40
2018-06-04T08:58:35.338Z,18.20
2018-06-04T09:01:04.124Z,18.30
2018-06-04T09:03:32.904Z,18.40
2018-06-04T09:06:01.678Z,18.50
2018-06-04T09:08:30.445Z,18.50
2018-06-04T09:13:27.681Z,18.70
2018-06-04T09:15:56.480Z,18.80
2018-06-04T09:18:25.249Z,18.80
2018-06-04T09:20:54.078Z,18.90
2018-06-04T09:25:51.350Z,18.80
2018-06-04T09:28:20.135Z,18.80
2018-06-04T09:30:48.927Z,18.70
2018-06-04T09:33:17.694Z,18.80
2018-06-04T09:35:46.475Z,19.00
2018-06-04T09:38:15.262Z,19.00
2018-06-04T09:40:44.041Z,19.00
2018-06-04T09:43:12.822Z,19.00
2018-06-04T09:45:41.586Z,19.00
2018-06-04T09:48:10.394Z,19.00
2018-06-04T09:50:39.171Z,18.90
2018-06-04T09:53:07.952Z,18.80
2018-06-04T09:55:36.723Z,18.70
2018-06-04T10:00:39.068Z,18.90
2018-06-04T10:03:07.838Z,19.00
2018-06-04T10:05:36.606Z,19.10
2018-06-04T10:08:05.421Z,19.30
2018-06-04T10:10:34.211Z,19.60
2018-06-04T10:13:02.986Z,19.60
2018-06-04T10:15:31.754Z,19.70
2018-06-04T10:18:00.534Z,19.70
2018-06-04T10:20:29.322Z,19.90
2018-06-04T10:22:58.125Z,19.70
2018-06-04T10:25:26.882Z,19.70
2018-06-04T10:30:24.475Z,20.10
2018-06-04T10:32:53.279Z,20.20
2018-06-04T10:35:22.061Z,20.30
2018-06-04T10:40:19.381Z,20.20
2018-06-04T10:42:48.182Z,20.50
2018-06-04T10:45:16.959Z,20.80
2018-06-04T10:47:45.781Z,20.90
2018-06-04T10:55:11.506Z,21.00
2018-06-04T10:57:40.301Z,21.10
2018-06-04T11:00:09.079Z,21.20
2018-06-04T11:02:37.870Z,21.20
2018-06-04T11:05:06.654Z,21.30
2018-06-04T11:07:35.465Z,21.40
2018-06-04T11:10:04.357Z,21.60
2018-06-04T11:12:33.157Z,21.60
2018-06-04T11:17:30.470Z,21.70
2018-06-04T11:19:59.252Z,21.80
2018-06-04T11:22:28.046Z,22.00
2018-06-04T11:24:56.814Z,22.20
2018-06-04T11:27:25.591Z,22.30
2018-06-04T11:29:54.722Z,22.50
2018-06-04T11:32:23.503Z,22.30
2018-06-04T11:34:52.260Z,22.10
2018-06-04T11:37:21.052Z,22.50
2018-06-04T11:39:49.833Z,22.60
2018-06-04T11:44:47.102Z,22.80
2018-06-04T11:49:44.727Z,22.80
2018-06-04T11:52:13.487Z,23.00
2018-06-04T11:54:42.289Z,23.20
2018-06-04T11:57:11.057Z,23.60
2018-06-04T11:59:39.838Z,23.40
2018-06-04T12:04:37.153Z,23.60
2018-06-04T12:07:05.917Z,23.70
2018-06-04T12:09:34.689Z,23.90
2018-06-04T12:12:03.463Z,23.90
2018-06-04T12:14:32.249Z,24.00
2018-06-04T12:17:01.013Z,24.00
2018-06-04T12:19:29.876Z,24.00
2018-06-04T12:21:58.669Z,23.90
2018-06-04T12:24:27.453Z,24.00
2018-06-04T12:26:56.226Z,23.80
2018-06-04T12:29:25.017Z,23.90
2018-06-04T12:31:53.797Z,24.30
2018-06-04T12:34:22.581Z,24.60
2018-06-04T12:36:51.339Z,24.50
2018-06-04T12:39:20.125Z,24.90
2018-06-04T12:41:48.921Z,25.20
2018-06-04T12:44:17.687Z,25.40
2018-06-04T12:46:46.505Z,25.20
2018-06-04T12:49:15.301Z,25.00
2018-06-04T12:51:44.087Z,25.30
2018-06-04T12:56:41.414Z,25.00
2018-06-04T12:59:10.201Z,25.00
2018-06-04T13:01:38.970Z,25.40
2018-06-04T13:04:07.742Z,25.40
2018-06-04T13:06:36.522Z,25.00
2018-06-04T13:09:07.266Z,25.00
2018-06-04T13:11:36.031Z,25.40
2018-06-04T13:16:33.300Z,25.40
2018-06-04T13:21:30.658Z,24.60
2018-06-04T13:24:00.696Z,24.80
2018-06-04T13:26:29.723Z,24.50
2018-06-04T13:28:58.497Z,25.00
2018-06-04T13:31:27.266Z,25.70
2018-06-04T13:36:24.501Z,25.70
2018-06-04T13:38:53.409Z,25.90
2018-06-04T13:41:22.181Z,26.10
2018-06-04T13:43:51.026Z,26.30
2018-06-04T13:46:19.785Z,26.50
2018-06-04T13:48:48.553Z,26.50
2018-06-04T13:51:17.314Z,26.40
2018-06-04T13:53:46.092Z,26.30
2018-06-04T13:56:14.867Z,26.10
2018-06-04T13:58:43.629Z,26.10
2018-06-04T14:03:41.033Z,26.80
2018-06-04T14:06:09.818Z,26.90
2018-06-04T14:08:38.596Z,27.00
2018-06-04T14:11:07.361Z,26.60
2018-06-04T14:16:04.749Z,27.10
2018-06-04T14:18:33.545Z,27.00
2018-06-04T14:21:02.513Z,27.10
2018-06-04T14:23:31.305Z,27.10
2018-06-04T14:26:00.066Z,27.00
2018-06-04T14:28:28.858Z,26.60
2018-06-04T14:30:57.681Z,26.60
2018-06-04T14:35:54.968Z,27.00
2018-06-04T14:38:23.741Z,26.60
2018-06-04T14:43:21.029Z,25.50
2018-06-04T14:45:49.818Z,25.20
2018-06-04T14:48:18.590Z,25.20
2018-06-04T14:53:15.861Z,26.00
2018-06-04T14:55:44.636Z,26.60
2018-06-04T14:58:13.409Z,26.50
2018-06-04T15:00:43.096Z,26.10
2018-06-04T15:03:12.289Z,25.80
2018-06-04T15:05:41.041Z,25.50
2018-06-04T15:08:09.821Z,25.80
2018-06-04T15:13:07.081Z,25.70
2018-06-04T15:15:36.007Z,25.60
2018-06-04T15:18:05.220Z,25.50
2018-06-04T15:20:33.969Z,25.20
2018-06-04T15:25:31.253Z,25.30
2018-06-04T15:28:00.021Z,25.20
2018-06-04T15:30:29.084Z,25.80
2018-06-04T15:32:57.865Z,25.60
2018-06-04T15:35:26.990Z,25.40
2018-06-04T15:37:55.874Z,24.80
2018-06-04T15:40:24.522Z,24.60
2018-06-04T15:42:53.286Z,24.20
2018-06-04T15:45:22.069Z,24.40
2018-06-04T15:50:19.337Z,23.90
2018-06-04T15:55:16.553Z,24.70
2018-06-04T15:57:45.334Z,24.80
2018-06-04T16:00:14.161Z,24.70
2018-06-04T16:02:42.935Z,24.60
2018-06-04T16:05:11.713Z,24.20
2018-06-04T16:07:40.491Z,24.20
2018-06-04T16:10:09.264Z,24.10
2018-06-04T16:12:38.013Z,23.90
2018-06-04T16:15:06.814Z,24.10
2018-06-04T16:20:04.060Z,24.00
2018-06-04T16:22:32.833Z,23.80
2018-06-04T16:25:01.618Z,23.40
2018-06-04T16:27:30.385Z,23.20
2018-06-04T16:29:59.152Z,23.70
2018-06-04T16:32:27.933Z,24.20
2018-06-04T16:34:56.717Z,24.40
2018-06-04T16:37:25.565Z,24.30
2018-06-04T16:42:22.777Z,24.50
2018-06-04T16:44:51.567Z,24.30
2018-06-04T16:47:20.348Z,23.50
2018-06-04T16:49:49.129Z,23.20
2018-06-04T16:54:46.472Z,23.70
2018-06-04T16:57:15.241Z,23.40
2018-06-04T16:59:44.006Z,23.00
2018-06-04T17:02:12.973Z,23.00
2018-06-04T17:07:10.289Z,22.70
2018-06-04T17:09:39.057Z,22.80
2018-06-04T17:12:07.914Z,22.80
2018-06-04T17:14:36.905Z,22.70
2018-06-04T17:17:05.702Z,22.40
2018-06-04T17:22:02.978Z,22.50
2018-06-04T17:29:28.722Z,22.10
2018-06-04T17:31:57.505Z,22.20
2018-06-04T17:34:26.273Z,22.10
2018-06-04T17:36:55.059Z,22.00
2018-06-04T17:39:24.466Z,22.10
2018-06-04T17:41:53.260Z,22.10
2018-06-04T17:44:22.017Z,22.00
2018-06-04T17:46:50.862Z,22.00
2018-06-04T17:51:48.144Z,21.50
2018-06-04T17:54:16.921Z,21.80
2018-06-04T17:59:14.394Z,22.10
2018-06-04T18:01:43.177Z,22.00
2018-06-04T18:06:41.366Z,21.90
2018-06-04T18:09:10.640Z,21.90
2018-06-04T18:11:39.414Z,21.90
2018-06-04T18:14:08.342Z,22.00
2018-06-04T18:16:37.286Z,21.90
2018-06-04T18:21:34.725Z,21.90
2018-06-04T18:24:03.504Z,22.10
2018-06-04T18:26:32.363Z,22.20
2018-06-04T18:29:01.137Z,21.90
2018-06-04T18:31:29.899Z,21.70
2018-06-04T18:33:58.718Z,21.30
2018-06-04T18:36:27.501Z,21.20
2018-06-04T18:38:56.324Z,21.10
2018-06-04T18:41:25.944Z,21.10
2018-06-04T18:43:55.775Z,20.80
2018-06-04T18:46:24.703Z,20.70
2018-06-04T18:48:53.653Z,20.60
2018-06-04T18:51:22.619Z,20.60
2018-06-04T18:53:53.132Z,20.90
2018-06-04T18:56:21.905Z,20.80
2018-06-04T18:58:50.685Z,20.70
2018-06-04T19:01:19.509Z,20.40
2018-06-04T19:03:48.428Z,20.20
2018-06-04T19:06:17.190Z,20.30
2018-06-04T19:08:46.028Z,20.40
2018-06-04T19:11:14.745Z,20.20
2018-06-04T19:13:43.533Z,20.00
2018-06-04T19:16:13.117Z,20.00
2018-06-04T19:18:41.996Z,19.90
2018-06-04T19:21:10.798Z,19.80
2018-06-04T19:23:39.564Z,19.80
2018-06-04T19:26:08.337Z,19.70
2018-06-04T19:28:37.131Z,19.50
2018-06-04T19:31:05.952Z,19.50
2018-06-04T19:33:34.728Z,19.40
2018-06-04T19:36:03.508Z,19.50
2018-06-04T19:38:32.300Z,19.50
2018-06-04T19:41:01.101Z,19.50
2018-06-04T19:43:29.913Z,19.40
2018-06-04T19:45:58.776Z,19.30
2018-06-04T19:48:27.662Z,19.10
2018-06-04T19:50:56.432Z,19.10
2018-06-04T19:53:25.327Z,19.00
2018-06-04T19:55:54.109Z,19.00
2018-06-04T19:58:22.905Z,19.00
2018-06-04T20:00:51.690Z,19.00
2018-06-04T20:03:20.509Z,18.90
2018-06-04T20:05:49.317Z,18.90
2018-06-04T20:08:18.160Z,18.80
2018-06-04T20:10:46.939Z,18.80
2018-06-04T20:13:15.733Z,18.70
2018-06-04T20:15:44.524Z,18.60
2018-06-04T20:18:13.309Z,18.60
2018-06-04T20:20:42.093Z,18.60
2018-06-04T20:23:10.981Z,18.60
2018-06-04T20:25:39.775Z,18.60
2018-06-04T20:28:08.846Z,18.50
2018-06-04T20:30:37.646Z,18.50
2018-06-04T20:33:06.487Z,18.40
2018-06-04T20:35:35.225Z,18.40
2018-06-04T20:38:04.027Z,18.30
2018-06-04T20:40:32.869Z,18.40
2018-06-04T20:43:01.635Z,18.40
2018-06-04T20:45:30.432Z,18.30
2018-06-04T20:47:59.294Z,18.30
2018-06-04T20:50:28.090Z,18.10
2018-06-04T20:52:56.874Z,18.00
2018-06-04T20:55:25.644Z,18.00
2018-06-04T20:57:54.433Z,18.00
2018-06-04T21:00:23.205Z,18.00
2018-06-04T21:02:51.973Z,17.90
2018-06-04T21:05:20.760Z,17.90
2018-06-04T21:07:49.658Z,17.70
2018-06-04T21:10:18.442Z,17.60
2018-06-04T21:12:47.200Z,17.60
2018-06-04T21:15:16.077Z,17.60
2018-06-04T21:17:44.952Z,17.50
2018-06-04T21:20:13.753Z,17.60
2018-06-04T21:25:11.198Z,17.30
2018-06-04T21:27:39.985Z,17.50
2018-06-04T21:30:08.813Z,17.40
2018-06-04T21:32:37.605Z,17.40
2018-06-04T21:35:06.461Z,17.40
2018-06-04T21:37:35.269Z,17.30
2018-06-04T21:40:04.400Z,17.30
2018-06-04T21:42:33.161Z,17.20
2018-06-04T21:45:02.002Z,17.10
2018-06-04T21:47:30.762Z,17.20
2018-06-04T21:49:59.553Z,17.20
2018-06-04T21:52:28.461Z,17.10
2018-06-04T21:54:57.322Z,17.00
2018-06-04T21:57:26.102Z,17.10
2018-06-04T22:02:23.461Z,16.80
2018-06-04T22:04:52.277Z,16.80
2018-06-04T22:07:21.046Z,16.80
2018-06-04T22:12:18.341Z,16.60
2018-06-04T22:14:47.609Z,16.50
2018-06-04T22:17:16.392Z,16.50
2018-06-04T22:19:45.193Z,16.60
2018-06-04T22:24:42.477Z,16.60
2018-06-04T22:29:39.897Z,16.60
2018-06-04T22:32:08.703Z,16.60
2018-06-04T22:34:37.865Z,16.50
2018-06-04T22:37:06.614Z,16.50
2018-06-04T22:42:03.967Z,16.40
2018-06-04T22:44:32.805Z,16.40
2018-06-04T22:47:01.574Z,16.30
2018-06-04T22:49:30.396Z,16.30
2018-06-04T22:51:59.157Z,16.40
2018-06-04T22:54:27.971Z,16.30
2018-06-04T22:56:56.732Z,16.30
2018-06-04T22:59:25.682Z,16.30
2018-06-04T23:01:54.460Z,16.30
2018-06-04T23:04:23.293Z,16.30
2018-06-04T23:09:20.855Z,16.30
2018-06-04T23:11:49.977Z,16.20
2018-06-04T23:16:47.385Z,16.10
2018-06-04T23:19:16.256Z,16.10
2018-06-04T23:21:45.030Z,16.20
2018-06-04T23:24:13.851Z,16.20
2018-06-04T23:26:42.654Z,16.10
2018-06-04T23:29:11.505Z,16.20
2018-06-04T23:31:40.346Z,16.10
2018-06-04T23:34:09.128Z,16.00
2018-06-04T23:36:37.957Z,16.10
2018-06-04T23:41:36.009Z,16.00
2018-06-04T23:44:04.801Z,16.00
2018-06-04T23:46:33.717Z,16.00
2018-06-04T23:49:02.501Z,16.00
2018-06-04T23:51:31.449Z,16.00
2018-06-04T23:54:00.260Z,15.90
2018-06-04T23:56:29.061Z,15.90
2018-06-04T23:58:57.817Z,16.00
